createdAt,value
2023-10-06T00:00:58.472Z,9.711561
2023-10-06T00:01:58.564Z,9.711600
2023-10-06T00:02:58.476Z,9.711661
2023-10-06T00:03:58.505Z,9.711658
2023-10-06T00:04:58.521Z,9.711527
2023-10-06T00:05:58.433Z,9.711657
2023-10-06T00:06:58.435Z,9.711585
2023-10-06T00:07:58.445Z,9.711680
2023-10-06T00:08:59.426Z,9.711789
2023-10-06T00:09:58.411Z,9.712197
2023-10-06T00:10:58.454Z,9.712587
2023-10-06T00:11:58.391Z,9.712804
2023-10-06T00:12:58.402Z,9.712943
2023-10-06T00:13:58.401Z,9.712051
2023-10-06T00:14:58.473Z,9.711942
2023-10-06T00:26:51.390Z,9.711060
2023-10-06T00:27:51.386Z,9.711794
2023-10-06T00:28:51.427Z,9.711832
2023-10-06T00:29:52.303Z,9.711293
2023-10-06T00:30:51.462Z,9.711630
2023-10-06T00:31:51.406Z,9.711415
2023-10-06T00:32:51.386Z,9.711366
2023-10-06T00:33:51.347Z,9.711744
2023-10-06T00:34:51.325Z,9.711255
2023-10-06T00:35:51.323Z,9.710752
2023-10-06T00:36:51.316Z,9.711457
2023-10-06T00:37:51.340Z,9.711740
2023-10-06T00:38:51.294Z,9.711450
2023-10-06T00:39:51.269Z,9.711079
2023-10-06T00:40:51.294Z,9.711441
2023-10-06T00:41:51.260Z,9.711452
2023-10-06T00:42:51.249Z,9.711452
2023-10-06T00:43:51.281Z,9.711452
2023-10-06T00:44:51.259Z,9.711385
2023-10-06T00:45:51.237Z,9.711746
2023-10-06T00:46:51.464Z,9.711862
2023-10-06T00:47:51.288Z,9.711936
2023-10-06T00:48:51.206Z,9.711566
2023-10-06T00:49:51.211Z,9.711469
2023-10-06T00:50:51.184Z,9.711330
2023-10-06T00:51:51.192Z,9.711450
2023-10-06T00:52:51.167Z,9.711502
2023-10-06T00:53:51.152Z,9.711390
2023-10-06T00:54:51.169Z,9.711433
2023-10-06T00:55:51.257Z,9.711688
2023-10-06T00:56:51.174Z,9.711816
2023-10-06T00:57:51.131Z,9.711695
2023-10-06T00:58:51.178Z,9.711500
2023-10-06T00:59:51.123Z,9.711341
2023-10-06T01:00:51.144Z,9.711254
2023-10-06T01:01:51.145Z,9.710979
2023-10-06T01:02:51.491Z,9.711411
2023-10-06T01:03:51.151Z,9.711204
2023-10-06T01:04:51.820Z,9.711282
2023-10-06T01:05:51.070Z,9.711301
2023-10-06T01:06:51.053Z,9.711353
2023-10-06T01:07:52.078Z,9.711200
2023-10-06T01:08:51.048Z,9.711441
2023-10-06T01:09:51.749Z,9.711622
2023-10-06T01:10:51.392Z,9.711450
2023-10-06T01:11:51.010Z,9.711537
2023-10-06T01:12:51.014Z,9.711576
2023-10-06T01:13:51.021Z,9.711316
2023-10-06T01:14:50.991Z,9.711342
2023-10-06T01:15:51.131Z,9.711353
2023-10-06T01:16:51.021Z,9.711675
2023-10-06T01:17:50.991Z,9.711712
2023-10-06T01:18:51.095Z,9.711703
2023-10-06T01:19:51.011Z,9.711448
2023-10-06T01:20:50.969Z,9.711343
2023-10-06T01:21:50.940Z,9.711490
2023-10-06T01:22:50.936Z,9.711653
2023-10-06T01:23:50.940Z,9.711670
2023-10-06T01:24:50.919Z,9.711698
2023-10-06T01:25:50.937Z,9.711639
2023-10-06T01:26:50.914Z,9.711536
2023-10-06T01:27:50.891Z,9.711628
2023-10-06T01:28:50.932Z,9.711680
2023-10-06T01:29:50.868Z,9.711702
2023-10-06T01:30:50.854Z,9.711779
2023-10-06T01:31:50.943Z,9.711556
2023-10-06T01:32:50.940Z,9.711702
2023-10-06T01:33:51.742Z,9.711376
2023-10-06T01:34:50.990Z,9.711651
2023-10-06T01:35:50.874Z,9.711688
2023-10-06T01:36:50.805Z,9.711725
2023-10-06T01:37:50.862Z,9.711659
2023-10-06T01:38:50.807Z,9.711989
2023-10-06T01:39:50.808Z,9.712182
2023-10-06T01:40:50.811Z,9.712104
2023-10-06T01:41:50.784Z,9.711949
2023-10-06T01:42:50.775Z,9.711843
2023-10-06T01:43:50.789Z,9.711784
2023-10-06T01:44:50.761Z,9.711442
2023-10-06T01:45:50.747Z,9.711633
2023-10-06T01:46:50.796Z,9.711652
2023-10-06T01:47:50.776Z,9.711590
2023-10-06T01:48:50.718Z,9.711605
2023-10-06T01:49:50.773Z,9.711673
2023-10-06T01:50:50.794Z,9.711566
2023-10-06T01:52:06.641Z,9.711588
2023-10-06T01:52:52.697Z,9.711572
2023-10-06T01:53:50.690Z,9.711537
2023-10-06T01:54:50.668Z,9.711812
2023-10-06T01:55:50.702Z,9.711758
2023-10-06T01:56:50.649Z,9.711775
2023-10-06T01:57:50.645Z,9.711751
2023-10-06T01:58:50.649Z,9.711745
2023-10-06T01:59:50.633Z,9.711684
2023-10-06T02:00:50.635Z,9.711658
2023-10-06T02:01:50.630Z,9.711672
2023-10-06T02:02:50.664Z,9.711668
2023-10-06T02:03:50.598Z,9.711775
2023-10-06T02:04:50.609Z,9.711684
2023-10-06T02:05:50.585Z,9.711703
2023-10-06T02:06:50.670Z,9.711724
2023-10-06T02:07:50.584Z,9.711722
2023-10-06T02:08:50.589Z,9.711693
2023-10-06T02:09:50.567Z,9.711692
2023-10-06T02:10:50.563Z,9.711704
2023-10-06T02:11:50.523Z,9.711699
2023-10-06T02:12:50.525Z,9.711670
2023-10-06T02:13:50.533Z,9.711691
2023-10-06T02:14:50.499Z,9.711721
2023-10-06T02:15:50.491Z,9.711744
2023-10-06T02:16:50.568Z,9.711674
2023-10-06T02:17:50.577Z,9.711663
2023-10-06T02:18:50.478Z,9.711661
2023-10-06T02:19:50.500Z,9.711652
2023-10-06T02:20:50.456Z,9.711679
2023-10-06T02:21:50.461Z,9.711663
2023-10-06T02:22:50.582Z,9.711621
2023-10-06T02:23:50.432Z,9.711623
2023-10-06T02:24:50.421Z,9.711655
2023-10-06T02:25:50.437Z,9.711649
2023-10-06T02:26:50.392Z,9.711638
2023-10-06T02:27:51.437Z,9.711623
2023-10-06T02:28:50.735Z,9.711641
2023-10-06T02:29:50.376Z,9.711672
2023-10-06T02:30:50.412Z,9.711680
2023-10-06T02:31:50.440Z,9.711666
2023-10-06T02:32:50.398Z,9.711669
2023-10-06T02:33:50.364Z,9.711640
2023-10-06T02:34:50.393Z,9.711647
2023-10-06T02:35:50.426Z,9.711639
2023-10-06T02:36:50.353Z,9.711686
2023-10-06T02:37:50.337Z,9.711678
2023-10-06T02:38:50.458Z,9.711605
2023-10-06T02:39:50.304Z,9.711652
2023-10-06T02:40:50.320Z,9.711577
2023-10-06T02:41:50.289Z,9.711589
2023-10-06T02:42:50.277Z,9.711514
2023-10-06T02:43:50.299Z,9.711594
2023-10-06T02:44:50.263Z,9.711656
2023-10-06T02:45:50.254Z,9.711764
2023-10-06T02:46:50.288Z,9.711584
2023-10-06T02:47:50.322Z,9.711525
2023-10-06T02:48:50.213Z,9.711662
2023-10-06T02:49:50.675Z,9.711684
2023-10-06T02:50:50.207Z,9.711723
2023-10-06T02:51:50.197Z,9.711677
2023-10-06T02:52:50.192Z,9.711680
2023-10-06T02:53:50.176Z,9.711466
2023-10-06T02:54:50.275Z,9.711424
2023-10-06T02:55:50.177Z,9.711346
2023-10-06T02:56:50.168Z,9.711452
2023-10-06T02:57:50.138Z,9.711461
2023-10-06T02:58:50.166Z,9.711616
2023-10-06T02:59:50.143Z,9.711404
2023-10-06T03:00:50.186Z,9.711542
2023-10-06T03:01:50.137Z,9.711727
2023-10-06T03:02:50.141Z,9.711597
2023-10-06T03:03:50.109Z,9.711714
2023-10-06T03:04:50.124Z,9.711879
2023-10-06T03:05:50.087Z,9.711444
2023-10-06T03:06:50.084Z,9.711479
2023-10-06T03:07:50.078Z,9.711648
2023-10-06T03:08:50.074Z,9.711692
2023-10-06T03:09:50.067Z,9.711770
2023-10-06T03:10:50.186Z,9.711841
2023-10-06T03:11:50.047Z,9.711800
2023-10-06T03:12:50.032Z,9.711688
2023-10-06T03:13:50.080Z,9.711701
2023-10-06T03:14:50.030Z,9.712080
2023-10-06T03:15:50.010Z,9.712109
2023-10-06T03:16:50.016Z,9.712253
2023-10-06T03:17:50.079Z,9.712360
2023-10-06T03:18:49.975Z,9.711870
2023-10-06T03:19:50.015Z,9.711608
2023-10-06T03:20:49.996Z,9.711554
2023-10-06T03:21:49.992Z,9.711529
2023-10-06T03:22:50.009Z,9.711517
2023-10-06T03:23:49.945Z,9.711514
2023-10-06T03:24:49.934Z,9.711487
2023-10-06T03:25:49.940Z,9.711504
2023-10-06T03:26:50.037Z,9.711517
2023-10-06T03:27:49.904Z,9.711531
2023-10-06T03:28:50.920Z,9.711557
2023-10-06T03:29:49.906Z,9.711596
2023-10-06T03:30:49.979Z,9.711582
2023-10-06T03:31:49.929Z,9.711560
2023-10-06T03:32:49.913Z,9.711550
2023-10-06T03:33:49.867Z,9.711586
2023-10-06T03:34:49.886Z,9.711635
2023-10-06T03:35:49.853Z,9.711591
2023-10-06T03:36:49.842Z,9.711593
2023-10-06T03:37:49.861Z,9.711608
2023-10-06T03:38:49.833Z,9.711612
2023-10-06T03:39:49.812Z,9.711665
2023-10-06T03:40:49.836Z,9.711638
2023-10-06T03:41:49.799Z,9.711648
2023-10-06T03:42:49.896Z,9.711669
2023-10-06T03:43:49.794Z,9.711648
2023-10-06T03:44:49.781Z,9.711638
2023-10-06T03:45:49.780Z,9.711707
2023-10-06T03:46:49.832Z,9.711694
2023-10-06T03:47:49.796Z,9.711592
2023-10-06T03:48:49.735Z,9.711630
2023-10-06T03:49:50.760Z,9.711691
2023-10-06T03:50:49.737Z,9.711617
2023-10-06T03:51:49.710Z,9.711721
2023-10-06T03:52:49.734Z,9.711611
2023-10-06T03:53:49.703Z,9.711580
2023-10-06T03:54:49.690Z,9.711740
2023-10-06T03:55:49.714Z,9.711766
2023-10-06T03:56:49.677Z,9.711670
2023-10-06T03:57:49.664Z,9.711824
2023-10-06T03:58:49.777Z,9.711802
2023-10-06T03:59:49.670Z,9.711840
2023-10-06T04:00:49.800Z,9.711855
2023-10-06T04:01:49.768Z,9.711931
2023-10-06T04:02:49.819Z,9.711923
2023-10-06T04:03:49.726Z,9.711946
2023-10-06T04:04:49.630Z,9.711953
2023-10-06T04:05:49.628Z,9.711901
2023-10-06T04:06:49.614Z,9.711994
2023-10-06T04:07:49.598Z,9.712089
2023-10-06T04:08:49.606Z,9.712120
2023-10-06T04:09:49.563Z,9.712166
2023-10-06T04:10:49.614Z,9.712102
2023-10-06T04:11:49.565Z,9.712106
2023-10-06T04:12:49.563Z,9.712061
2023-10-06T04:13:49.576Z,9.712212
2023-10-06T04:14:49.635Z,9.712234
2023-10-06T04:15:49.530Z,9.712232
2023-10-06T04:16:49.533Z,9.712079
2023-10-06T04:17:49.517Z,9.711976
2023-10-06T04:18:49.796Z,9.712006
2023-10-06T04:19:49.503Z,9.711791
2023-10-06T04:20:49.483Z,9.711788
2023-10-06T04:21:49.468Z,9.711686
2023-10-06T04:22:49.469Z,9.711698
2023-10-06T04:23:50.365Z,9.711701
2023-10-06T04:24:49.453Z,9.711697
2023-10-06T04:25:49.474Z,9.711677
2023-10-06T04:26:49.440Z,9.711700
2023-10-06T04:27:49.428Z,9.711693
2023-10-06T04:28:49.873Z,9.711684
2023-10-06T04:29:49.422Z,9.711634
2023-10-06T04:30:49.522Z,9.711629
2023-10-06T04:31:49.450Z,9.711673
2023-10-06T04:32:49.416Z,9.711689
2023-10-06T04:33:49.373Z,9.711699
2023-10-06T04:34:50.392Z,9.711762
2023-10-06T04:35:49.374Z,9.711718
2023-10-06T04:36:49.362Z,9.711686
2023-10-06T04:37:49.367Z,9.711729
2023-10-06T04:38:49.366Z,9.711703
2023-10-06T04:39:49.337Z,9.711726
2023-10-06T04:40:49.337Z,9.711696
2023-10-06T04:41:49.323Z,9.711735
2023-10-06T04:42:49.321Z,9.711712
2023-10-06T04:43:50.335Z,9.711686
2023-10-06T04:44:49.314Z,9.711684
2023-10-06T04:45:49.314Z,9.711658
2023-10-06T04:46:49.445Z,9.711724
2023-10-06T04:47:49.296Z,9.711716
2023-10-06T04:48:49.274Z,9.711674
2023-10-06T04:49:49.259Z,9.711671
2023-10-06T04:50:49.236Z,9.711668
2023-10-06T04:51:49.776Z,9.711648
2023-10-06T04:52:50.275Z,9.711688
2023-10-06T04:53:49.280Z,9.711576
2023-10-06T04:54:49.202Z,9.711713
2023-10-06T04:55:49.222Z,9.711655
2023-10-06T04:56:49.177Z,9.711672
2023-10-06T04:57:49.192Z,9.711689
2023-10-06T04:58:49.211Z,9.711611
2023-10-06T04:59:49.160Z,9.711663
2023-10-06T05:00:49.165Z,9.711697
2023-10-06T05:01:49.189Z,9.711635
2023-10-06T05:02:49.311Z,9.711622
2023-10-06T05:03:49.166Z,9.711646
2023-10-06T05:04:49.150Z,9.711671
2023-10-06T05:05:49.132Z,9.711646
2023-10-06T05:06:49.103Z,9.711646
2023-10-06T05:07:49.103Z,9.711672
2023-10-06T05:08:49.540Z,9.711646
2023-10-06T05:09:49.792Z,9.711653
2023-10-06T05:10:49.114Z,9.711654
2023-10-06T05:11:49.062Z,9.711639
2023-10-06T05:12:49.075Z,9.711652
2023-10-06T05:13:49.179Z,9.711655
2023-10-06T05:14:49.042Z,9.711621
2023-10-06T05:15:49.024Z,9.711638
2023-10-06T05:16:49.112Z,9.711621
2023-10-06T05:17:49.041Z,9.711596
2023-10-06T05:18:49.202Z,9.711602
2023-10-06T05:19:49.013Z,9.711646
2023-10-06T05:20:48.984Z,9.711622
2023-10-06T05:21:48.983Z,9.711590
2023-10-06T05:22:49.007Z,9.711625
2023-10-06T05:23:48.990Z,9.711633
2023-10-06T05:24:48.961Z,9.711615
2023-10-06T05:25:49.020Z,9.711673
2023-10-06T05:26:48.956Z,9.711636
2023-10-06T05:27:48.970Z,9.711613
2023-10-06T05:28:49.939Z,9.711558
2023-10-06T05:29:48.920Z,9.711653
2023-10-06T05:30:48.929Z,9.711642
2023-10-06T05:31:48.982Z,9.711619
2023-10-06T05:32:48.985Z,9.711661
2023-10-06T05:33:48.922Z,9.711694
2023-10-06T05:34:49.014Z,9.711579
2023-10-06T05:35:48.876Z,9.711615
2023-10-06T05:36:48.867Z,9.711655
2023-10-06T05:37:48.888Z,9.711550
2023-10-06T05:38:48.910Z,9.711741
2023-10-06T05:39:48.833Z,9.711599
2023-10-06T05:40:48.853Z,9.711628
2023-10-06T05:41:48.814Z,9.711672
2023-10-06T05:42:48.824Z,9.711798
2023-10-06T05:43:48.852Z,9.711782
2023-10-06T05:44:48.808Z,9.711730
2023-10-06T05:45:48.800Z,9.711705
2023-10-06T05:46:48.802Z,9.711642
2023-10-06T05:47:48.792Z,9.711651
2023-10-06T05:48:49.805Z,9.711711
2023-10-06T05:49:48.798Z,9.711690
2023-10-06T05:50:48.854Z,9.711634
2023-10-06T05:51:48.964Z,9.711711
2023-10-06T05:52:48.754Z,9.711744
2023-10-06T05:53:48.736Z,9.711709
2023-10-06T05:54:48.714Z,9.711691
2023-10-06T05:55:48.789Z,9.711706
2023-10-06T05:56:48.766Z,9.711697
2023-10-06T05:57:48.737Z,9.711727
2023-10-06T05:58:48.703Z,9.711716
2023-10-06T05:59:48.676Z,9.711645
2023-10-06T06:00:48.675Z,9.711628
2023-10-06T06:01:48.773Z,9.711632
2023-10-06T06:02:48.690Z,9.711672
2023-10-06T06:03:49.398Z,9.711715
2023-10-06T06:04:48.663Z,9.711570
2023-10-06T06:05:48.622Z,9.711608
2023-10-06T06:06:48.719Z,9.711661
2023-10-06T06:07:48.618Z,9.711806
2023-10-06T06:08:49.523Z,9.711717
2023-10-06T06:09:48.601Z,9.711712
2023-10-06T06:10:48.594Z,9.711697
2023-10-06T06:11:48.596Z,9.711826
2023-10-06T06:12:48.579Z,9.711758
2023-10-06T06:13:58.863Z,9.711843
2023-10-06T06:14:50.590Z,9.711725
2023-10-06T06:15:48.560Z,9.711891
2023-10-06T06:16:48.589Z,9.711927
2023-10-06T06:17:48.557Z,9.711867
2023-10-06T06:18:49.858Z,9.711824
2023-10-06T06:19:49.645Z,9.711783
2023-10-06T06:20:48.524Z,9.711687
2023-10-06T06:21:48.499Z,9.711736
2023-10-06T06:22:48.625Z,9.711843
2023-10-06T06:23:48.493Z,9.712041
2023-10-06T06:24:48.469Z,9.712081
2023-10-06T06:25:48.512Z,9.711881
2023-10-06T06:26:48.466Z,9.711782
2023-10-06T06:27:48.453Z,9.711845
2023-10-06T06:28:48.469Z,9.711578
2023-10-06T06:29:48.454Z,9.711675
2023-10-06T06:30:48.590Z,9.711859
2023-10-06T06:31:48.459Z,9.711696
2023-10-06T06:32:48.424Z,9.711783
2023-10-06T06:33:48.411Z,9.711795
2023-10-06T06:34:48.409Z,9.711744
2023-10-06T06:35:48.409Z,9.711820
2023-10-06T06:36:48.401Z,9.711836
2023-10-06T06:37:48.375Z,9.711742
2023-10-06T06:38:48.473Z,9.711878
2023-10-06T06:39:48.362Z,9.711922
2023-10-06T06:40:48.370Z,9.711801
2023-10-06T06:41:48.351Z,9.711967
2023-10-06T06:42:48.330Z,9.711641
2023-10-06T06:43:48.383Z,9.711633
2023-10-06T06:44:48.315Z,9.711637
2023-10-06T06:45:49.332Z,9.711699
2023-10-06T06:46:48.308Z,9.711655
2023-10-06T06:47:48.343Z,9.711699
2023-10-06T06:48:48.298Z,9.711656
2023-10-06T06:49:48.288Z,9.711688
2023-10-06T06:50:48.278Z,9.711712
2023-10-06T06:51:48.273Z,9.711578
2023-10-06T06:52:49.277Z,9.711658
2023-10-06T06:53:48.246Z,9.711697
2023-10-06T06:54:48.426Z,9.711710
2023-10-06T06:55:48.320Z,9.711675
2023-10-06T06:56:48.227Z,9.711691
2023-10-06T06:57:52.771Z,9.711730
2023-10-06T06:58:50.238Z,9.711675
2023-10-06T06:59:48.244Z,9.711690
2023-10-06T07:00:48.184Z,9.711685
2023-10-06T07:01:48.264Z,9.711646
2023-10-06T07:02:48.223Z,9.711701
2023-10-06T07:03:48.883Z,9.711720
2023-10-06T07:04:48.192Z,9.711714
2023-10-06T07:05:48.158Z,9.711705
2023-10-06T07:06:48.203Z,9.711769
2023-10-06T07:07:52.267Z,9.711659
2023-10-06T07:08:49.132Z,9.711658
2023-10-06T07:09:48.190Z,9.711636
2023-10-06T07:10:48.738Z,9.711616
2023-10-06T07:11:48.113Z,9.711621
2023-10-06T07:12:48.132Z,9.711686
2023-10-06T07:13:48.096Z,9.711721
2023-10-06T07:14:48.120Z,9.711670
2023-10-06T07:15:48.135Z,9.711660
2023-10-06T07:16:48.124Z,9.711641
2023-10-06T07:17:48.265Z,9.711576
2023-10-06T07:18:48.059Z,9.711650
2023-10-06T07:19:48.125Z,9.711673
2023-10-06T07:20:48.083Z,9.711785
2023-10-06T07:21:48.072Z,9.711836
2023-10-06T07:22:48.049Z,9.711824
2023-10-06T07:23:48.068Z,9.711716
2023-10-06T07:24:47.998Z,9.711872
2023-10-06T07:25:48.092Z,9.711839
2023-10-06T07:26:48.095Z,9.711825
2023-10-06T07:27:47.983Z,9.711813
2023-10-06T07:28:48.556Z,9.711776
2023-10-06T07:29:48.960Z,9.711708
2023-10-06T07:30:47.968Z,9.711740
2023-10-06T07:31:47.998Z,9.712018
2023-10-06T07:32:47.992Z,9.712004
2023-10-06T07:33:47.956Z,9.711968
2023-10-06T07:34:47.982Z,9.711951
2023-10-06T07:35:48.971Z,9.711996
2023-10-06T07:36:47.947Z,9.712021
2023-10-06T07:37:47.988Z,9.711772
2023-10-06T07:38:47.897Z,9.711767
2023-10-06T07:39:48.884Z,9.711764
2023-10-06T07:40:47.908Z,9.711760
2023-10-06T07:41:47.858Z,9.711799
2023-10-06T07:42:47.958Z,9.711596
2023-10-06T07:43:48.842Z,9.711605
2023-10-06T07:44:47.844Z,9.711697
2023-10-06T07:45:47.887Z,9.711670
2023-10-06T07:46:47.894Z,9.711793
2023-10-06T07:47:47.839Z,9.711802
2023-10-06T07:48:47.819Z,9.711776
2023-10-06T07:49:47.812Z,9.711715
2023-10-06T07:50:47.796Z,9.711658
2023-10-06T07:51:47.788Z,9.711687
2023-10-06T07:52:47.850Z,9.711662
2023-10-06T07:53:47.782Z,9.711771
2023-10-06T07:54:47.765Z,9.711708
2023-10-06T07:55:47.777Z,9.711622
2023-10-06T07:56:47.745Z,9.711631
2023-10-06T07:57:47.759Z,9.711597
2023-10-06T07:58:47.944Z,9.711865
2023-10-06T07:59:47.726Z,9.711685
2023-10-06T08:00:47.722Z,9.711638
2023-10-06T08:01:47.703Z,9.711717
2023-10-06T08:02:47.725Z,9.711740
2023-10-06T08:03:47.728Z,9.711704
2023-10-06T08:04:47.697Z,9.711761
2023-10-06T08:05:47.723Z,9.711752
2023-10-06T08:06:47.671Z,9.711728
2023-10-06T08:07:47.778Z,9.711843
2023-10-06T08:08:47.639Z,9.711822
2023-10-06T08:09:47.648Z,9.711896
2023-10-06T08:10:47.659Z,9.711990
2023-10-06T08:11:47.665Z,9.711910
2023-10-06T08:12:47.647Z,9.711586
2023-10-06T08:13:47.650Z,9.711921
2023-10-06T08:14:47.745Z,9.711857
2023-10-06T08:15:47.643Z,9.711979
2023-10-06T08:16:47.619Z,9.712037
2023-10-06T08:17:47.717Z,9.711945
2023-10-06T08:18:47.611Z,9.711960
2023-10-06T08:19:47.598Z,9.711939
2023-10-06T08:20:47.602Z,9.711863
2023-10-06T08:21:47.680Z,9.711972
2023-10-06T08:22:47.726Z,9.711883
2023-10-06T08:23:47.566Z,9.711791
2023-10-06T08:24:47.554Z,9.711890
2023-10-06T08:25:59.600Z,9.711800
2023-10-06T08:26:49.601Z,9.711809
2023-10-06T08:27:47.511Z,9.711729
2023-10-06T08:28:47.513Z,9.711789
2023-10-06T08:29:47.507Z,9.711780
2023-10-06T08:30:47.581Z,9.711746
2023-10-06T08:31:47.509Z,9.711656
2023-10-06T08:32:47.549Z,9.711395
2023-10-06T08:33:47.614Z,9.711654
2023-10-06T08:34:47.560Z,9.711793
2023-10-06T08:35:47.541Z,9.711709
2023-10-06T08:36:47.424Z,9.711708
2023-10-06T08:37:47.561Z,9.711824
2023-10-06T08:38:47.447Z,9.711709
2023-10-06T08:39:47.443Z,9.711740
2023-10-06T08:40:47.503Z,9.711723
2023-10-06T08:41:47.451Z,9.711565
2023-10-06T08:42:47.448Z,9.711467
2023-10-06T08:43:47.415Z,9.711591
2023-10-06T08:44:47.376Z,9.711684
2023-10-06T08:45:49.015Z,9.711644
2023-10-06T08:46:47.493Z,9.711461
2023-10-06T08:47:59.908Z,9.711440
2023-10-06T08:48:49.454Z,9.711474
2023-10-06T08:49:47.959Z,9.711523
2023-10-06T08:50:47.341Z,9.711739
2023-10-06T08:51:47.308Z,9.711669
2023-10-06T08:52:47.333Z,9.711658
2023-10-06T08:53:47.300Z,9.711634
2023-10-06T08:54:47.302Z,9.711695
2023-10-06T08:55:47.327Z,9.711609
2023-10-06T08:56:47.328Z,9.711699
2023-10-06T08:57:47.314Z,9.711689
2023-10-06T08:58:47.309Z,9.711762
2023-10-06T08:59:47.244Z,9.711938
2023-10-06T09:00:47.292Z,9.712194
2023-10-06T09:01:47.314Z,9.711990
2023-10-06T09:02:47.379Z,9.711794
2023-10-06T09:03:47.382Z,9.712095
2023-10-06T09:04:47.247Z,9.712007
2023-10-06T09:05:47.218Z,9.712039
2023-10-06T09:06:47.196Z,9.711930
2023-10-06T09:07:47.272Z,9.712041
2023-10-06T09:08:49.382Z,9.712045
2023-10-06T09:09:47.182Z,9.711901
2023-10-06T09:10:47.242Z,9.711906
2023-10-06T09:11:47.863Z,9.711812
2023-10-06T09:12:47.145Z,9.711686
2023-10-06T09:13:47.964Z,9.711605
2023-10-06T09:14:47.149Z,9.711653
2023-10-06T09:15:47.190Z,9.711691
2023-10-06T09:16:47.191Z,9.711685
2023-10-06T09:17:47.133Z,9.711591
2023-10-06T09:18:47.187Z,9.711701
2023-10-06T09:19:47.108Z,9.711943
2023-10-06T09:20:47.087Z,9.711776
2023-10-06T09:21:47.073Z,9.711627
2023-10-06T09:22:47.097Z,9.711658
2023-10-06T09:23:47.045Z,9.711658
2023-10-06T09:24:47.060Z,9.711622
2023-10-06T09:25:47.546Z,9.711615
2023-10-06T09:26:47.128Z,9.711817
2023-10-06T09:27:47.025Z,9.712011
2023-10-06T09:28:47.031Z,9.711791
2023-10-06T09:29:46.996Z,9.711745
2023-10-06T09:30:47.015Z,9.711777
2023-10-06T09:31:46.983Z,9.711824
2023-10-06T09:32:47.003Z,9.711877
2023-10-06T09:33:47.858Z,9.711834
2023-10-06T09:34:47.138Z,9.711697
2023-10-06T09:35:47.883Z,9.711652
2023-10-06T09:36:46.938Z,9.711666
2023-10-06T09:37:46.994Z,9.711616
2023-10-06T09:38:46.934Z,9.711604
2023-10-06T09:39:46.913Z,9.711620
2023-10-06T09:40:46.923Z,9.711517
2023-10-06T09:41:46.894Z,9.711592
2023-10-06T09:42:46.883Z,9.711623
2023-10-06T09:43:46.910Z,9.711605
2023-10-06T09:44:46.870Z,9.711577
2023-10-06T09:45:46.870Z,9.711548
2023-10-06T09:46:46.872Z,9.711587
2023-10-06T09:47:46.915Z,9.711502
2023-10-06T09:48:47.014Z,9.711476
2023-10-06T09:49:47.588Z,9.711595
2023-10-06T09:50:46.920Z,9.711598
2023-10-06T09:51:47.013Z,9.711663
2023-10-06T09:52:46.874Z,9.711626
2023-10-06T09:53:46.847Z,9.711680
2023-10-06T09:54:46.801Z,9.711597
2023-10-06T09:55:46.793Z,9.711734
2023-10-06T09:56:46.792Z,9.711664
2023-10-06T09:57:46.771Z,9.711676
2023-10-06T09:58:47.004Z,9.711691
2023-10-06T09:59:46.782Z,9.711761
2023-10-06T10:00:46.963Z,9.711711
2023-10-06T10:01:47.008Z,9.711659
2023-10-06T10:02:46.860Z,9.711737
2023-10-06T10:03:46.812Z,9.711645
2023-10-06T10:04:46.784Z,9.711602
2023-10-06T10:05:46.713Z,9.711626
2023-10-06T10:06:46.711Z,9.711599
2023-10-06T10:07:46.708Z,9.711637
2023-10-06T10:08:46.711Z,9.711631
2023-10-06T10:09:46.676Z,9.711677
2023-10-06T10:10:46.659Z,9.711636
2023-10-06T10:11:46.739Z,9.711626
2023-10-06T10:12:46.649Z,9.711658
2023-10-06T10:13:48.404Z,9.711629
2023-10-06T10:14:46.633Z,9.711681
2023-10-06T10:15:46.629Z,9.711638
2023-10-06T10:16:46.670Z,9.711648
2023-10-06T10:17:46.639Z,9.711540
2023-10-06T10:18:46.598Z,9.711655
2023-10-06T10:19:46.623Z,9.711688
2023-10-06T10:20:46.583Z,9.711674
2023-10-06T10:21:46.589Z,9.711575
2023-10-06T10:22:46.671Z,9.711595
2023-10-06T10:23:46.613Z,9.711593
2023-10-06T10:25:11.605Z,9.711682
2023-10-06T10:25:48.707Z,9.711635
2023-10-06T10:26:46.584Z,9.711675
2023-10-06T10:27:46.542Z,9.711694
2023-10-06T10:28:46.606Z,9.711762
2023-10-06T10:29:46.537Z,9.711725
2023-10-06T10:30:46.541Z,9.711695
2023-10-06T10:32:00.301Z,9.711800
2023-10-06T10:32:48.552Z,9.711869
2023-10-06T10:33:46.538Z,9.711784
2023-10-06T10:34:46.509Z,9.711776
2023-10-06T10:35:46.640Z,9.711810
2023-10-06T10:36:46.467Z,9.711767
2023-10-06T10:37:46.459Z,9.711788
2023-10-06T10:38:46.553Z,9.711700
2023-10-06T10:39:46.439Z,9.711514
2023-10-06T10:40:46.451Z,9.711537
2023-10-06T10:41:46.425Z,9.711684
2023-10-06T10:42:46.429Z,9.711652
2023-10-06T10:43:46.583Z,9.711632
2023-10-06T10:44:46.418Z,9.711670
2023-10-06T10:45:46.483Z,9.711711
2023-10-06T10:46:46.427Z,9.711595
2023-10-06T10:47:46.473Z,9.711591
2023-10-06T10:48:46.371Z,9.711528
2023-10-06T10:49:46.380Z,9.711576
2023-10-06T10:50:46.356Z,9.711535
2023-10-06T10:51:46.405Z,9.711624
2023-10-06T10:52:46.338Z,9.711591
2023-10-06T10:53:46.321Z,9.711583
2023-10-06T10:54:46.437Z,9.711784
2023-10-06T10:55:46.351Z,9.711732
2023-10-06T10:56:46.319Z,9.711721
2023-10-06T10:57:46.362Z,9.711738
2023-10-06T10:58:46.345Z,9.711539
2023-10-06T10:59:46.275Z,9.711762
2023-10-06T11:00:46.322Z,9.711878
2023-10-06T11:01:46.269Z,9.711827
2023-10-06T11:02:46.269Z,9.711697
2023-10-06T11:03:46.937Z,9.711494
2023-10-06T11:04:46.912Z,9.711620
2023-10-06T11:05:46.231Z,9.711598
2023-10-06T11:06:46.211Z,9.711749
2023-10-06T11:07:46.203Z,9.711599
2023-10-06T11:08:46.212Z,9.711604
2023-10-06T11:09:46.917Z,9.711545
2023-10-06T11:10:46.180Z,9.711622
2023-10-06T11:11:46.181Z,9.711508
2023-10-06T11:12:46.899Z,9.711504
2023-10-06T11:13:54.728Z,9.711537
2023-10-06T11:14:48.240Z,9.711532
2023-10-06T11:15:46.144Z,9.711501
2023-10-06T11:16:46.224Z,9.711501
2023-10-06T11:17:46.291Z,9.711524
2023-10-06T11:18:46.151Z,9.711508
2023-10-06T11:19:46.162Z,9.711500
2023-10-06T11:20:46.182Z,9.711521
2023-10-06T11:21:46.160Z,9.711499
2023-10-06T11:22:46.991Z,9.711533
2023-10-06T11:23:46.077Z,9.711514
2023-10-06T11:24:46.080Z,9.711548
2023-10-06T11:25:46.061Z,9.711563
2023-10-06T11:26:46.183Z,9.711541
2023-10-06T11:27:46.074Z,9.711546
2023-10-06T11:28:46.123Z,9.711576
2023-10-06T11:29:46.040Z,9.711561
2023-10-06T11:30:46.045Z,9.711550
2023-10-06T11:31:46.027Z,9.711582
2023-10-06T11:32:46.178Z,9.711491
2023-10-06T11:33:46.009Z,9.711507
2023-10-06T11:34:45.996Z,9.711574
2023-10-06T11:35:45.994Z,9.711551
2023-10-06T11:36:45.992Z,9.711530
2023-10-06T11:37:45.961Z,9.711560
2023-10-06T11:38:45.949Z,9.711598
2023-10-06T11:39:45.940Z,9.711579
2023-10-06T11:40:45.945Z,9.711603
2023-10-06T11:41:45.939Z,9.711555
2023-10-06T11:42:45.929Z,9.711620
2023-10-06T11:43:45.921Z,9.711623
2023-10-06T11:44:45.906Z,9.711583
2023-10-06T11:45:45.920Z,9.711577
2023-10-06T11:46:45.884Z,9.711550
2023-10-06T11:47:46.000Z,9.711522
2023-10-06T11:48:45.958Z,9.711640
2023-10-06T11:49:45.881Z,9.711736
2023-10-06T11:50:46.416Z,9.711709
2023-10-06T11:51:45.922Z,9.711721
2023-10-06T11:52:45.847Z,9.711653
2023-10-06T11:53:45.845Z,9.711693
2023-10-06T11:54:45.832Z,9.711750
2023-10-06T11:55:45.818Z,9.711565